Naval Amphibious Base, Virginia
Current Conditions -  °F | °C
As of 4:51 AM on Monday 22 Dec 2014 (Local Time) from KORF Reporting Station
Light Rain Light Rain  
Wind Chill: 33°   Ceiling: 4300
Heat Index: 41°   Visibility: 6mi
Dew Point: 36°   Wind: 14mph
Humidity: 82%   Direction: 40°NE
Pressure: 30.19"   Gusts: NA
Location:  36.9184°N, 76.1571°W
Report Text: KORF 220951Z AUTO 04012KT 6SM -RA OVC043 05/02 A3019 RMK AO2 RAB38 SLP223 P0000 T00500022 TSNO
Loading
Personal Weather Stations






























Interactive Weather Map New forecast layout! Learn more

10-Day Weather Forecast

Advertisements
Track Severe Weather on mobile